sensor_id;sensor_type;location;lat;lon;timestamp;pressure;altitude;pressure_sealevel;temperature;humidity
45275;BME280;31019;43.780;25.948;2023-04-19T00:01:05;100799.56;;;9.12;100.00
45275;BME280;31019;43.780;25.948;2023-04-19T00:08:54;100806.25;;;9.43;100.00
45275;BME280;31019;43.780;25.948;2023-04-19T00:10:48;100788.72;;;9.42;100.00
45275;BME280;31019;43.780;25.948;2023-04-19T00:13:37;100799.19;;;9.50;100.00
45275;BME280;31019;43.780;25.948;2023-04-19T00:17:07;100791.41;;;9.49;100.00
45275;BME280;31019;43.780;25.948;2023-04-19T00:20:25;100791.53;;;9.34;100.00
45275;BME280;31019;43.780;25.948;2023-04-19T00:23:35;100782.75;;;9.27;100.00
45275;BME280;31019;43.780;25.948;2023-04-19T00:29:36;100798.53;;;9.42;100.00
45275;BME280;31019;43.780;25.948;2023-04-19T00:32:14;100783.81;;;9.04;100.00
45275;BME280;31019;43.780;25.948;2023-04-19T00:35:20;100796.00;;;9.27;100.00
45275;BME280;31019;43.780;25.948;2023-04-19T00:38:17;100797.91;;;9.39;100.00
45275;BME280;31019;43.780;25.948;2023-04-19T00:44:42;100794.28;;;9.12;100.00
45275;BME280;31019;43.780;25.948;2023-04-19T00:47:28;100797.91;;;9.05;100.00
45275;BME280;31019;43.780;25.948;2023-04-19T00:51:39;100798.44;;;9.28;100.00
45275;BME280;31019;43.780;25.948;2023-04-19T00:53:56;100786.13;;;9.14;100.00
45275;BME280;31019;43.780;25.948;2023-04-19T00:57:01;100781.44;;;9.16;100.00
45275;BME280;31019;43.780;25.948;2023-04-19T01:03:01;100777.84;;;9.30;100.00
45275;BME280;31019;43.780;25.948;2023-04-19T01:05:50;100778.63;;;9.17;100.00
45275;BME280;31019;43.780;25.948;2023-04-19T01:11:47;100785.78;;;9.24;100.00
45275;BME280;31019;43.780;25.948;2023-04-19T01:14:25;100782.75;;;9.27;100.00
45275;BME280;31019;43.780;25.948;2023-04-19T01:17:25;100775.56;;;9.21;100.00
45275;BME280;31019;43.780;25.948;2023-04-19T01:20:28;100781.66;;;9.14;100.00
45275;BME280;31019;43.780;25.948;2023-04-19T01:26:38;100757.31;;;9.04;100.00
45275;BME280;31019;43.780;25.948;2023-04-19T01:35:54;100770.19;;;9.07;100.00
45275;BME280;31019;43.780;25.948;2023-04-19T01:42:05;100771.88;;;9.15;100.00
45275;BME280;31019;43.780;25.948;2023-04-19T01:44:49;100763.28;;;9.13;100.00
45275;BME280;31019;43.780;25.948;2023-04-19T01:47:48;100768.53;;;9.06;100.00
45275;BME280;31019;43.780;25.948;2023-04-19T01:50:35;100758.31;;;8.97;100.00
45275;BME280;31019;43.780;25.948;2023-04-19T01:53:35;100771.59;;;9.03;100.00
45275;BME280;31019;43.780;25.948;2023-04-19T01:56:16;100755.84;;;8.95;100.00
45275;BME280;31019;43.780;25.948;2023-04-19T01:59:31;100751.00;;;8.99;100.00
45275;BME280;31019;43.780;25.948;2023-04-19T02:02:31;100757.66;;;8.94;100.00
45275;BME280;31019;43.780;25.948;2023-04-19T02:05:17;100758.31;;;8.97;100.00
45275;BME280;31019;43.780;25.948;2023-04-19T02:08:06;100760.53;;;8.93;100.00
45275;BME280;31019;43.780;25.948;2023-04-19T02:10:45;100756.72;;;9.02;100.00
45275;BME280;31019;43.780;25.948;2023-04-19T02:19:54;100745.25;;;8.95;100.00
45275;BME280;31019;43.780;25.948;2023-04-19T02:22:57;100740.34;;;8.92;100.00
45275;BME280;31019;43.780;25.948;2023-04-19T02:28:54;100751.41;;;9.02;100.00
45275;BME280;31019;43.780;25.948;2023-04-19T02:31:51;100752.66;;;9.06;100.00
45275;BME280;31019;43.780;25.948;2023-04-19T02:34:36;100748.41;;;9.12;100.00
45275;BME280;31019;43.780;25.948;2023-04-19T02:37:18;100748.34;;;8.99;100.00
45275;BME280;31019;43.780;25.948;2023-04-19T02:40:32;100739.63;;;9.05;100.00
45275;BME280;31019;43.780;25.948;2023-04-19T02:43:40;100732.06;;;9.02;100.00
45275;BME280;31019;43.780;25.948;2023-04-19T02:46:23;100727.50;;;8.95;100.00
45275;BME280;31019;43.780;25.948;2023-04-19T02:49:22;100738.09;;;8.95;100.00
45275;BME280;31019;43.780;25.948;2023-04-19T02:56:31;100734.25;;;8.98;100.00
45275;BME280;31019;43.780;25.948;2023-04-19T02:58:47;100739.38;;;9.00;100.00
45275;BME280;31019;43.780;25.948;2023-04-19T03:01:29;100727.91;;;8.92;100.00
45275;BME280;31019;43.780;25.948;2023-04-19T03:04:22;100739.75;;;8.97;100.00
45275;BME280;31019;43.780;25.948;2023-04-19T03:07:15;100728.91;;;8.91;100.00
45275;BME280;31019;43.780;25.948;2023-04-19T03:10:08;100738.09;;;8.95;100.00
45275;BME280;31019;43.780;25.948;2023-04-19T03:12:44;100726.69;;;8.95;100.00
45275;BME280;31019;43.780;25.948;2023-04-19T03:15:37;100736.44;;;8.88;100.00
45275;BME280;31019;43.780;25.948;2023-04-19T03:18:46;100721.97;;;8.84;100.00
45275;BME280;31019;43.780;25.948;2023-04-19T03:22:05;100721.75;;;8.85;100.00
45275;BME280;31019;43.780;25.948;2023-04-19T03:24:44;100725.03;;;8.87;100.00
45275;BME280;31019;43.780;25.948;2023-04-19T03:28:04;100722.56;;;8.86;100.00
45275;BME280;31019;43.780;25.948;2023-04-19T03:36:45;100727.50;;;8.95;100.00
45275;BME280;31019;43.780;25.948;2023-04-19T03:42:31;100728.09;;;8.91;100.00
45275;BME280;31019;43.780;25.948;2023-04-19T03:45:43;100720.09;;;8.78;100.00
45275;BME280;31019;43.780;25.948;2023-04-19T03:48:30;100729.13;;;8.90;100.00
45275;BME280;31019;43.780;25.948;2023-04-19T03:51:17;100724.16;;;8.80;100.00
45275;BME280;31019;43.780;25.948;2023-04-19T03:54:38;100733.19;;;8.92;100.00
45275;BME280;31019;43.780;25.948;2023-04-19T03:57:06;100733.38;;;8.84;100.00
45275;BME280;31019;43.780;25.948;2023-04-19T04:03:33;100739.72;;;8.90;100.00
45275;BME280;31019;43.780;25.948;2023-04-19T04:06:20;100744.19;;;8.89;100.00
45275;BME280;31019;43.780;25.948;2023-04-19T04:09:53;100733.16;;;8.86;100.00
45275;BME280;31019;43.780;25.948;2023-04-19T04:13:00;100731.72;;;8.83;100.00
45275;BME280;31019;43.780;25.948;2023-04-19T04:16:27;100723.56;;;8.78;100.00
45275;BME280;31019;43.780;25.948;2023-04-19T04:32:10;100724.63;;;8.84;100.00
45275;BME280;31019;43.780;25.948;2023-04-19T04:34:52;100721.75;;;8.85;100.00
45275;BME280;31019;43.780;25.948;2023-04-19T04:37:44;100741.75;;;8.88;100.00
45275;BME280;31019;43.780;25.948;2023-04-19T04:40:40;100738.94;;;8.96;100.00
45275;BME280;31019;43.780;25.948;2023-04-19T04:43:38;100732.78;;;8.89;100.00
45275;BME280;31019;43.780;25.948;2023-04-19T04:46:38;100740.97;;;8.94;100.00
45275;BME280;31019;43.780;25.948;2023-04-19T04:49:20;100745.31;;;9.02;100.00
45275;BME280;31019;43.780;25.948;2023-04-19T04:52:51;100744.47;;;9.01;100.00
45275;BME280;31019;43.780;25.948;2023-04-19T04:55:37;100739.78;;;9.03;100.00
45275;BME280;31019;43.780;25.948;2023-04-19T05:01:48;100738.88;;;9.17;100.00
45275;BME280;31019;43.780;25.948;2023-04-19T05:04:32;100732.13;;;9.15;100.00
45275;BME280;31019;43.780;25.948;2023-04-19T05:07:13;100730.97;;;9.31;100.00
45275;BME280;31019;43.780;25.948;2023-04-19T05:13:30;100744.59;;;9.21;100.00
45275;BME280;31019;43.780;25.948;2023-04-19T05:19:59;100740.53;;;9.32;100.00
45275;BME280;31019;43.780;25.948;2023-04-19T05:23:58;100741.81;;;9.36;100.00
45275;BME280;31019;43.780;25.948;2023-04-19T05:25:41;100742.75;;;9.22;100.00
45275;BME280;31019;43.780;25.948;2023-04-19T05:28:23;100738.72;;;9.32;100.00
45275;BME280;31019;43.780;25.948;2023-04-19T05:31:27;100744.63;;;9.34;100.00
45275;BME280;31019;43.780;25.948;2023-04-19T05:34:01;100740.53;;;9.32;100.00
45275;BME280;31019;43.780;25.948;2023-04-19T05:36:55;100748.97;;;9.42;100.00
45275;BME280;31019;43.780;25.948;2023-04-19T05:39:39;100741.56;;;9.31;100.00
45275;BME280;31019;43.780;25.948;2023-04-19T05:42:39;100746.97;;;9.51;100.00
45275;BME280;31019;43.780;25.948;2023-04-19T05:45:34;100738.13;;;9.37;100.00
45275;BME280;31019;43.780;25.948;2023-04-19T05:51:37;100732.91;;;9.57;100.00
45275;BME280;31019;43.780;25.948;2023-04-19T05:54:43;100740.09;;;9.76;100.00
45275;BME280;31019;43.780;25.948;2023-04-19T05:58:05;100732.16;;;9.83;100.00
45275;BME280;31019;43.780;25.948;2023-04-19T06:01:15;100724.25;;;9.90;100.00
45275;BME280;31019;43.780;25.948;2023-04-19T06:04:12;100728.94;;;9.94;100.00
45275;BME280;31019;43.780;25.948;2023-04-19T06:06:58;100722.44;;;10.17;100.00
45275;BME280;31019;43.780;25.948;2023-04-19T06:10:11;100727.94;;;10.08;100.00
45275;BME280;31019;43.780;25.948;2023-04-19T06:12:50;100734.47;;;10.06;100.00
45275;BME280;31019;43.780;25.948;2023-04-19T06:15:37;100724.88;;;10.18;100.00
45275;BME280;31019;43.780;25.948;2023-04-19T06:18:21;100728.34;;;10.05;100.00
45275;BME280;31019;43.780;25.948;2023-04-19T06:21:20;100727.53;;;10.05;100.00
45275;BME280;31019;43.780;25.948;2023-04-19T06:27:19;100719.81;;;10.30;100.00
45275;BME280;31019;43.780;25.948;2023-04-19T06:30:18;100724.69;;;10.20;100.00
45275;BME280;31019;43.780;25.948;2023-04-19T06:33:26;100732.47;;;10.35;100.00
45275;BME280;31019;43.780;25.948;2023-04-19T06:36:16;100733.50;;;10.40;100.00
45275;BME280;31019;43.780;25.948;2023-04-19T06:39:23;100714.91;;;10.27;100.00
45275;BME280;31019;43.780;25.948;2023-04-19T06:42:03;100718.38;;;10.34;100.00
45275;BME280;31019;43.780;25.948;2023-04-19T06:45:05;100727.56;;;10.65;100.00
45275;BME280;31019;43.780;25.948;2023-04-19T06:47:51;100720.00;;;10.55;100.00
45275;BME280;31019;43.780;25.948;2023-04-19T06:50:57;100732.88;;;10.71;100.00
45275;BME280;31019;43.780;25.948;2023-04-19T06:53:59;100727.78;;;10.63;100.00
45275;BME280;31019;43.780;25.948;2023-04-19T06:56:55;100725.72;;;10.72;100.00
45275;BME280;31019;43.780;25.948;2023-04-19T07:00:04;100726.94;;;10.76;100.00
45275;BME280;31019;43.780;25.948;2023-04-19T07:06:01;100726.44;;;11.19;100.00
45275;BME280;31019;43.780;25.948;2023-04-19T07:12:06;100733.81;;;11.10;100.00
45275;BME280;31019;43.780;25.948;2023-04-19T07:14:54;100739.25;;;11.42;100.00
45275;BME280;31019;43.780;25.948;2023-04-19T07:17:37;100736.28;;;11.05;100.00
45275;BME280;31019;43.780;25.948;2023-04-19T07:20:29;100740.22;;;11.54;100.00
45275;BME280;31019;43.780;25.948;2023-04-19T07:31:13;100724.78;;;11.24;100.00
45275;BME280;31019;43.780;25.948;2023-04-19T07:32:50;100726.34;;;11.45;100.00
45275;BME280;31019;43.780;25.948;2023-04-19T07:35:24;100729.47;;;11.29;100.00
45275;BME280;31019;43.780;25.948;2023-04-19T07:38:07;100740.66;;;11.44;100.00
45275;BME280;31019;43.780;25.948;2023-04-19T07:41:07;100740.72;;;11.24;100.00
45275;BME280;31019;43.780;25.948;2023-04-19T07:43:56;100747.03;;;11.88;100.00
45275;BME280;31019;43.780;25.948;2023-04-19T07:46:48;100730.84;;;11.45;100.00
45275;BME280;31019;43.780;25.948;2023-04-19T07:49:28;100750.72;;;11.81;100.00
45275;BME280;31019;43.780;25.948;2023-04-19T07:52:09;100740.09;;;11.81;100.00
45275;BME280;31019;43.780;25.948;2023-04-19T07:58:01;100743.88;;;12.05;100.00
45275;BME280;31019;43.780;25.948;2023-04-19T08:00:56;100733.53;;;12.15;100.00
45275;BME280;31019;43.780;25.948;2023-04-19T08:03:37;100743.75;;;11.80;100.00
45275;BME280;31019;43.780;25.948;2023-04-19T08:06:28;100748.50;;;11.78;100.00
45275;BME280;31019;43.780;25.948;2023-04-19T08:12:13;100739.72;;;11.70;100.00
45275;BME280;31019;43.780;25.948;2023-04-19T08:15:05;100747.25;;;11.87;100.00
45275;BME280;31019;43.780;25.948;2023-04-19T08:20:32;100741.78;;;12.07;100.00
45275;BME280;31019;43.780;25.948;2023-04-19T08:23:18;100737.31;;;12.32;100.00
45275;BME280;31019;43.780;25.948;2023-04-19T08:26:05;100733.22;;;12.30;100.00
45275;BME280;31019;43.780;25.948;2023-04-19T08:35:04;100721.22;;;12.21;100.00
45275;BME280;31019;43.780;25.948;2023-04-19T08:38:17;100716.00;;;12.32;100.00
45275;BME280;31019;43.780;25.948;2023-04-19T08:41:03;100723.34;;;12.37;100.00
45275;BME280;31019;43.780;25.948;2023-04-19T08:43:51;100727.09;;;12.54;100.00
45275;BME280;31019;43.780;25.948;2023-04-19T08:46:46;100722.56;;;12.55;100.00
45275;BME280;31019;43.780;25.948;2023-04-19T08:49:49;100722.38;;;12.56;100.00
45275;BME280;31019;43.780;25.948;2023-04-19T08:52:46;100715.94;;;12.82;100.00
45275;BME280;31019;43.780;25.948;2023-04-19T09:02:18;100717.25;;;13.35;100.00
45275;BME280;31019;43.780;25.948;2023-04-19T09:08:36;100719.84;;;14.56;100.00
45275;BME280;31019;43.780;25.948;2023-04-19T09:11:38;100717.31;;;14.07;100.00
45275;BME280;31019;43.780;25.948;2023-04-19T09:14:45;100716.59;;;13.70;100.00
45275;BME280;31019;43.780;25.948;2023-04-19T09:17:46;100735.28;;;14.54;100.00
45275;BME280;31019;43.780;25.948;2023-04-19T09:21:28;100720.41;;;14.58;100.00
45275;BME280;31019;43.780;25.948;2023-04-19T09:24:06;100713.28;;;15.51;100.00
45275;BME280;31019;43.780;25.948;2023-04-19T09:27:07;100726.78;;;15.85;100.00
45275;BME280;31019;43.780;25.948;2023-04-19T09:36:27;100714.53;;;15.20;100.00
45275;BME280;31019;43.780;25.948;2023-04-19T09:38:55;100720.50;;;15.50;100.00
45275;BME280;31019;43.780;25.948;2023-04-19T09:41:34;100730.34;;;16.53;100.00
45275;BME280;31019;43.780;25.948;2023-04-19T09:44:21;100726.22;;;15.83;100.00
45275;BME280;31019;43.780;25.948;2023-04-19T09:47:02;100723.03;;;15.28;100.00
45275;BME280;31019;43.780;25.948;2023-04-19T09:50:13;100723.28;;;15.84;100.00
45275;BME280;31019;43.780;25.948;2023-04-19T09:53:28;100714.28;;;15.33;100.00
45275;BME280;31019;43.780;25.948;2023-04-19T09:59:17;100715.06;;;14.93;100.00
45275;BME280;31019;43.780;25.948;2023-04-19T10:02:23;100700.75;;;14.99;100.00
45275;BME280;31019;43.780;25.948;2023-04-19T10:05:13;100713.97;;;15.06;100.00
45275;BME280;31019;43.780;25.948;2023-04-19T10:08:15;100706.53;;;14.14;100.00
45275;BME280;31019;43.780;25.948;2023-04-19T10:17:43;100707.63;;;15.35;100.00
45275;BME280;31019;43.780;25.948;2023-04-19T10:20:46;100703.22;;;14.54;100.00
45275;BME280;31019;43.780;25.948;2023-04-19T10:23:47;100705.44;;;15.32;100.00
45275;BME280;31019;43.780;25.948;2023-04-19T10:33:15;100692.00;;;14.21;100.00
45275;BME280;31019;43.780;25.948;2023-04-19T10:36:27;100700.00;;;14.10;100.00
45275;BME280;31019;43.780;25.948;2023-04-19T10:39:41;100696.72;;;14.61;100.00
45275;BME280;31019;43.780;25.948;2023-04-19T10:45:47;100702.09;;;14.08;100.00
45275;BME280;31019;43.780;25.948;2023-04-19T11:22:47;100691.91;;;14.16;100.00
45275;BME280;31019;43.780;25.948;2023-04-19T11:25:40;100678.78;;;14.85;100.00
45275;BME280;31019;43.780;25.948;2023-04-19T11:29:00;100689.22;;;15.10;100.00
45275;BME280;31019;43.780;25.948;2023-04-19T11:31:24;100683.00;;;15.22;100.00
45275;BME280;31019;43.780;25.948;2023-04-19T11:33:52;100681.09;;;14.82;100.00
45275;BME280;31019;43.780;25.948;2023-04-19T11:36:19;100679.59;;;14.51;100.00
45275;BME280;31019;43.780;25.948;2023-04-19T11:38:48;100678.66;;;14.92;100.00
45275;BME280;31019;43.780;25.948;2023-04-19T11:41:15;100684.00;;;15.04;100.00
45275;BME280;31019;43.780;25.948;2023-04-19T11:43:42;100670.47;;;15.22;100.00
45275;BME280;31019;43.780;25.948;2023-04-19T11:46:12;100661.88;;;15.77;100.00
45275;BME280;31019;43.780;25.948;2023-04-19T11:48:49;100658.31;;;16.06;100.00
45275;BME280;31019;43.780;25.948;2023-04-19T11:51:17;100662.94;;;15.36;100.00
45275;BME280;31019;43.780;25.948;2023-04-19T11:53:44;100659.59;;;15.57;100.00
45275;BME280;31019;43.780;25.948;2023-04-19T11:56:13;100647.72;;;16.33;100.00
45275;BME280;31019;43.780;25.948;2023-04-19T11:58:43;100645.22;;;16.82;100.00
45275;BME280;31019;43.780;25.948;2023-04-19T12:01:54;100642.09;;;15.67;100.00
45275;BME280;31019;43.780;25.948;2023-04-19T12:05:56;100634.88;;;16.52;100.00
45275;BME280;31019;43.780;25.948;2023-04-19T12:08:07;100643.38;;;15.93;100.00
45275;BME280;31019;43.780;25.948;2023-04-19T12:11:04;100630.63;;;15.83;100.00
45275;BME280;31019;43.780;25.948;2023-04-19T12:14:16;100619.69;;;15.56;100.00
45275;BME280;31019;43.780;25.948;2023-04-19T12:23:42;100606.09;;;16.25;100.00
45275;BME280;31019;43.780;25.948;2023-04-19T12:26:12;100599.25;;;16.34;100.00
45275;BME280;31019;43.780;25.948;2023-04-19T12:29:02;100593.16;;;16.39;100.00
45275;BME280;31019;43.780;25.948;2023-04-19T12:31:30;100594.25;;;15.87;100.00
45275;BME280;31019;43.780;25.948;2023-04-19T12:33:58;100589.13;;;16.02;100.00
45275;BME280;31019;43.780;25.948;2023-04-19T12:36:51;100586.28;;;17.68;100.00
45275;BME280;31019;43.780;25.948;2023-04-19T12:39:18;100572.59;;;18.02;100.00
45275;BME280;31019;43.780;25.948;2023-04-19T12:41:46;100577.22;;;16.10;100.00
45275;BME280;31019;43.780;25.948;2023-04-19T12:45:02;100566.31;;;17.27;100.00
45275;BME280;31019;43.780;25.948;2023-04-19T12:53:48;100573.44;;;16.89;100.00
45275;BME280;31019;43.780;25.948;2023-04-19T12:56:16;100561.03;;;17.69;100.00
45275;BME280;31019;43.780;25.948;2023-04-19T12:58:43;100569.63;;;17.07;100.00
45275;BME280;31019;43.780;25.948;2023-04-19T13:01:23;100565.50;;;17.85;100.00
45275;BME280;31019;43.780;25.948;2023-04-19T13:04:10;100554.75;;;17.26;100.00
45275;BME280;31019;43.780;25.948;2023-04-19T13:07:30;100555.13;;;17.35;100.00
45275;BME280;31019;43.780;25.948;2023-04-19T13:11:15;100555.72;;;17.42;100.00
45275;BME280;31019;43.780;25.948;2023-04-19T13:17:29;100562.66;;;16.67;100.00
45275;BME280;31019;43.780;25.948;2023-04-19T13:20:14;100563.03;;;16.32;100.00
45275;BME280;31019;43.780;25.948;2023-04-19T13:26:05;100549.72;;;15.98;100.00
45275;BME280;31019;43.780;25.948;2023-04-19T13:28:42;100554.28;;;16.58;100.00
45275;BME280;31019;43.780;25.948;2023-04-19T13:31:09;100562.97;;;16.26;100.00
45275;BME280;31019;43.780;25.948;2023-04-19T13:33:35;100551.53;;;17.56;100.00
45275;BME280;31019;43.780;25.948;2023-04-19T13:36:03;100548.03;;;16.97;100.00
45275;BME280;31019;43.780;25.948;2023-04-19T13:38:30;100542.91;;;16.95;100.00
45275;BME280;31019;43.780;25.948;2023-04-19T13:44:34;100547.38;;;16.23;100.00
45275;BME280;31019;43.780;25.948;2023-04-19T13:47:31;100520.88;;;17.79;100.00
45275;BME280;31019;43.780;25.948;2023-04-19T13:50:43;100534.66;;;18.41;100.00
45275;BME280;31019;43.780;25.948;2023-04-19T13:54:11;100540.03;;;16.36;100.00
45275;BME280;31019;43.780;25.948;2023-04-19T14:00:50;100527.72;;;17.33;100.00
45275;BME280;31019;43.780;25.948;2023-04-19T14:04:09;100542.31;;;17.15;100.00
45275;BME280;31019;43.780;25.948;2023-04-19T14:27:23;100522.22;;;17.82;100.00
45275;BME280;31019;43.780;25.948;2023-04-19T14:29:50;100520.13;;;17.57;100.00
45275;BME280;31019;43.780;25.948;2023-04-19T14:32:17;100523.78;;;17.13;100.00
45275;BME280;31019;43.780;25.948;2023-04-19T14:34:44;100527.91;;;17.85;100.00
45275;BME280;31019;43.780;25.948;2023-04-19T14:37:11;100512.84;;;17.20;100.00
45275;BME280;31019;43.780;25.948;2023-04-19T14:39:38;100520.66;;;17.22;100.00
45275;BME280;31019;43.780;25.948;2023-04-19T14:42:04;100524.06;;;17.44;100.00
45275;BME280;31019;43.780;25.948;2023-04-19T14:44:33;100519.53;;;16.68;100.00
45275;BME280;31019;43.780;25.948;2023-04-19T14:47:00;100517.47;;;17.99;100.00
45275;BME280;31019;43.780;25.948;2023-04-19T14:49:27;100513.06;;;17.78;100.00
45275;BME280;31019;43.780;25.948;2023-04-19T14:51:54;100514.69;;;18.26;100.00
45275;BME280;31019;43.780;25.948;2023-04-19T14:54:20;100520.38;;;17.23;100.00
45275;BME280;31019;43.780;25.948;2023-04-19T14:56:48;100516.03;;;16.68;100.00
45275;BME280;31019;43.780;25.948;2023-04-19T14:59:15;100518.28;;;17.30;100.00
45275;BME280;31019;43.780;25.948;2023-04-19T15:01:44;100521.50;;;17.59;100.00
45275;BME280;31019;43.780;25.948;2023-04-19T15:07:07;100526.31;;;16.54;100.00
45275;BME280;31019;43.780;25.948;2023-04-19T15:10:14;100512.19;;;17.08;100.00
45275;BME280;31019;43.780;25.948;2023-04-19T15:13:30;100536.06;;;17.09;100.00
45275;BME280;31019;43.780;25.948;2023-04-19T15:16:36;100524.66;;;16.92;100.00
45275;BME280;31019;43.780;25.948;2023-04-19T15:19:37;100524.66;;;17.19;100.00
45275;BME280;31019;43.780;25.948;2023-04-19T15:25:53;100524.16;;;17.27;100.00
45275;BME280;31019;43.780;25.948;2023-04-19T15:28:41;100520.66;;;17.22;100.00
45275;BME280;31019;43.780;25.948;2023-04-19T15:31:42;100529.91;;;17.09;100.00
45275;BME280;31019;43.780;25.948;2023-04-19T15:34:50;100516.31;;;16.88;100.00
45275;BME280;31019;43.780;25.948;2023-04-19T15:37:45;100523.75;;;16.20;100.00
45275;BME280;31019;43.780;25.948;2023-04-19T15:40:41;100520.34;;;16.25;100.00
45275;BME280;31019;43.780;25.948;2023-04-19T15:43:29;100519.22;;;16.43;100.00
45275;BME280;31019;43.780;25.948;2023-04-19T15:46:43;100510.16;;;16.05;100.00
45275;BME280;31019;43.780;25.948;2023-04-19T15:49:34;100524.00;;;15.80;100.00
45275;BME280;31019;43.780;25.948;2023-04-19T15:52:51;100506.38;;;15.67;100.00
45275;BME280;31019;43.780;25.948;2023-04-19T15:55:58;100516.84;;;15.35;100.00
45275;BME280;31019;43.780;25.948;2023-04-19T15:59:07;100517.00;;;15.28;100.00
45275;BME280;31019;43.780;25.948;2023-04-19T16:02:20;100517.81;;;15.29;100.00
45275;BME280;31019;43.780;25.948;2023-04-19T16:04:38;100504.72;;;15.16;100.00
45275;BME280;31019;43.780;25.948;2023-04-19T16:10:45;100510.69;;;15.06;100.00
45275;BME280;31019;43.780;25.948;2023-04-19T16:13:38;100510.53;;;15.12;100.00
45275;BME280;31019;43.780;25.948;2023-04-19T16:16:33;100506.69;;;15.20;100.00
45275;BME280;31019;43.780;25.948;2023-04-19T16:19:27;100503.97;;;15.03;100.00
45275;BME280;31019;43.780;25.948;2023-04-19T16:22:21;100502.44;;;15.07;100.00
45275;BME280;31019;43.780;25.948;2023-04-19T16:25:15;100514.66;;;15.03;100.00
45275;BME280;31019;43.780;25.948;2023-04-19T16:31:16;100516.16;;;14.82;100.00
45275;BME280;31019;43.780;25.948;2023-04-19T16:33:43;100522.72;;;14.75;100.00
45275;BME280;31019;43.780;25.948;2023-04-19T16:36:10;100516.59;;;14.62;100.00
45275;BME280;31019;43.780;25.948;2023-04-19T16:38:37;100521.94;;;14.62;100.00
45275;BME280;31019;43.780;25.948;2023-04-19T16:41:04;100529.03;;;14.45;100.00
45275;BME280;31019;43.780;25.948;2023-04-19T16:43:30;100531.38;;;14.53;100.00
45275;BME280;31019;43.780;25.948;2023-04-19T16:45:58;100540.53;;;14.46;100.00
45275;BME280;31019;43.780;25.948;2023-04-19T16:48:50;100524.50;;;14.34;100.00
45275;BME280;31019;43.780;25.948;2023-04-19T16:53:08;100527.66;;;14.19;100.00
45275;BME280;31019;43.780;25.948;2023-04-19T16:54:42;100537.06;;;14.21;100.00
45275;BME280;31019;43.780;25.948;2023-04-19T16:57:09;100530.94;;;14.21;100.00
45275;BME280;31019;43.780;25.948;2023-04-19T16:59:44;100535.69;;;14.19;100.00
45275;BME280;31019;43.780;25.948;2023-04-19T17:02:36;100537.66;;;14.00;100.00
45275;BME280;31019;43.780;25.948;2023-04-19T17:08:59;100549.53;;;13.81;100.00
45275;BME280;31019;43.780;25.948;2023-04-19T17:11:51;100549.38;;;13.75;100.00
45275;BME280;31019;43.780;25.948;2023-04-19T17:14:48;100542.31;;;13.69;100.00
45275;BME280;31019;43.780;25.948;2023-04-19T17:17:32;100552.97;;;13.58;100.00
45275;BME280;31019;43.780;25.948;2023-04-19T17:20:27;100559.34;;;13.57;100.00
45275;BME280;31019;43.780;25.948;2023-04-19T17:23:11;100544.53;;;13.31;100.00
45275;BME280;31019;43.780;25.948;2023-04-19T17:26:02;100553.34;;;13.31;100.00
45275;BME280;31019;43.780;25.948;2023-04-19T17:29:28;100554.66;;;13.28;100.00
45275;BME280;31019;43.780;25.948;2023-04-19T17:31:56;100554.25;;;13.25;100.00
45275;BME280;31019;43.780;25.948;2023-04-19T17:34:47;100547.47;;;13.11;100.00
45275;BME280;31019;43.780;25.948;2023-04-19T17:48:12;100577.59;;;12.26;100.00
45275;BME280;31019;43.780;25.948;2023-04-19T17:50:39;100578.97;;;12.10;100.00
45275;BME280;31019;43.780;25.948;2023-04-19T17:53:06;100585.03;;;11.99;100.00
45275;BME280;31019;43.780;25.948;2023-04-19T17:55:33;100585.88;;;11.93;100.00
45275;BME280;31019;43.780;25.948;2023-04-19T17:57:59;100588.47;;;11.74;100.00
45275;BME280;31019;43.780;25.948;2023-04-19T18:00:26;100594.22;;;11.71;100.00
45275;BME280;31019;43.780;25.948;2023-04-19T18:39:08;100638.06;;;12.44;100.00
45275;BME280;31019;43.780;25.948;2023-04-19T18:41:37;100649.53;;;12.44;100.00
45275;BME280;31019;43.780;25.948;2023-04-19T18:44:04;100656.47;;;12.45;100.00
45275;BME280;31019;43.780;25.948;2023-04-19T18:46:31;100658.25;;;12.51;100.00
45275;BME280;31019;43.780;25.948;2023-04-19T18:48:58;100660.84;;;12.58;100.00
45275;BME280;31019;43.780;25.948;2023-04-19T18:51:25;100652.78;;;12.65;100.00
45275;BME280;31019;43.780;25.948;2023-04-19T18:53:53;100652.66;;;12.59;100.00
45275;BME280;31019;43.780;25.948;2023-04-19T18:56:21;100669.75;;;12.70;100.00
45275;BME280;31019;43.780;25.948;2023-04-19T18:58:48;100668.09;;;12.51;100.00
45275;BME280;31019;43.780;25.948;2023-04-19T19:01:15;100665.28;;;12.46;100.00
45275;BME280;31019;43.780;25.948;2023-04-19T19:03:41;100665.44;;;12.51;100.00
45275;BME280;31019;43.780;25.948;2023-04-19T19:06:08;100660.81;;;12.40;100.00
45275;BME280;31019;43.780;25.948;2023-04-19T19:08:35;100649.97;;;12.41;100.00
45275;BME280;31019;43.780;25.948;2023-04-19T19:11:02;100663.13;;;12.36;100.00
45275;BME280;31019;43.780;25.948;2023-04-19T19:13:30;100664.44;;;12.27;100.00
45275;BME280;31019;43.780;25.948;2023-04-19T19:16:06;100661.97;;;12.25;100.00
45275;BME280;31019;43.780;25.948;2023-04-19T19:18:56;100658.44;;;12.31;100.00